Latest Observation

66 Stations

10 Minute Data
as of 5/5/26 4:39 PM PDT
Station Date Time Temp (°F) RH (%) Dew Pt (°F) Wind Spd (mph) Wind Dir (°) Wind Gust (mph) Wind Gst Dir (°) Latest Rain (In) Soil Moist (%) Soil Temp (°F) Daily Rain (In) Daily Min Temp (°F) Daily Max Temp (°F) Daily Max Wind (mph)
Hobart Mills 5/5/26 1630 60.4   17.6 48   46 40.8   0.5 3.3   2.7 NNE | 20 6.7   4.3 NE | 41 0.00 - 32.0   0.0 0.03 34.4   0.0 60.6   14.7 6.7   0.7
Prosser Dam 5/5/26 1640 61.6   18.9 46   43 40.4   0.8 8.3   4.6 ENE | 72 15.8   6.2 NE | 44 0.00 25.2   4.5 47.2   0.5 0.00 36.7   0.5 62.4   15.6 17.1   4.6
West Incline Village 5/5/26 1630 49.8   12.8 76   24 42.5   5.7 2.9   1.1 SSW | 211 7.7   2.1 SSW | 197 0.00 35.3   4.5 42.8   1.2 0.42 32.5   3.7 50.8   9.5 9.3   1.2
Incline Village (Fairview Blvd) 5/5/26 1640 50.6   13.3 77   22 43.5   6.4 1.0   0.3 SW | 234 5.0   1.0 SSW | 202 0.00 28.3   1.1 49.1   2.2 0.37 33.5   3.7 51.4   9.3 8.1   1.7
Incline Village (Diamond Peak) 5/5/26 1630 47.3   12.4 84   14 42.8   8.3 0.2   1.0 SSW | 202 1.9   1.6 SSW | 210 0.00 10.3   2.1 40.4   3.0 0.07 31.8   2.8 48.4   8.7 8.6   2.6
Incline Village (Mill Creek) 5/5/26 1640 50.5   14.7 75   19 43.1   8.8 0.5   0.4 W | 263 3.1   0.4 N | 1 0.00 11.5   1.8 44.7   1.3 0.13 33.8   1.5 51.9   8.3 8.7   3.5
Incline Village (Lakeshore Blvd) 5/5/26 1640 50.7   10.2 74   19 42.9   4.2 2.1   0.7 SSW | 211 4.1   2.6 SW | 225 0.00 35.8   0.8 52.5   1.3 0.02 35.8   1.5 50.9   5.1 5.7   2.0
Glenbrook 5/5/26 1630 51.8   11.0 67   22 41.4   3.6 4.4   1.4 WSW | 254 7.3   0.4 WSW | 244 0.00 44.2   0.0 44.3   0.5 0.06 34.2   5.0 53.6   8.4 9.9   2.4
Zephyr Cove 5/5/26 1630 54.9   13.5 63   29 42.7   3.4 0.5   1.0 SSW | 201 3.1   1.6 SW | 227 0.00 - 34.3   0.0 0.01 32.6   8.1 55.2   11.1 3.1   1.6
Kingsbury Grade 5/5/26 1640 54.7   13.9 58   37 40.3   0.8 2.0   0.5 S | 176 7.6   1.7 SE | 139 0.00 6.4   1.1 48.1   2.1 0.60 32.0   6.4 55.8   12.7 11.4   3.9
South Daggett Pass (Ridge) 5/5/26 1630 49.5   12.5 66   34 38.5   1.7 3.1   1.3 SE | 141 8.7   5.2 SE | 142 0.00 6.9   0.4 45.0   2.2 0.46 31.2   5.2 50.1   10.0 11.7   3.5
Palomino Valley 5/5/26 1640 69.7   8.7 30   22 36.8   6.5 5.7   8.6 NNE | 23 11.9   6.5 N | 0 0.00 6.8   0.0 63.3   0.0 0.00 46.2   1.2 71.1   6.5 19.9   11.3
East Cold Springs 5/5/26 1640 63.6   11.9 44   30 41.4   2.5 4.0   9.7 W | 264 7.2   13.8 W | 276 0.00 1.6   0.1 54.4   0.2 0.09 40.3   3.2 64.6   5.6 17.8   7.8
Peavine 5/5/26 1640 60.8   9.1 45   22 39.2   1.7 4.6   7.5 N | 9 10.1   11.3 N | 9 0.00 - 53.4   0.0 0.00 40.7   0.7 61.8   7.7 16.3   6.6
West Verdi Peak 5/5/26 1640 60.9   14.9 46   35 40.1   0.4 1.3   2.6 N | 349 4.2   6.0 N | 354 0.00 22.3   6.1 50.5   0.4 0.00 37.1   2.5 62.4   13.1 11.7   7.3
West Verdi 5/5/26 1640 65.9   13.6 40   24 41.0   0.4 5.1   4.8 SE | 130 10.1   9.1 S | 169 0.00 8.2   0.6 57.8   0.4 0.00 40.2   3.8 67.4   11.9 11.0   16.6
South Verdi 5/5/26 1640 63.1   14.3 40   30 38.8   0.8 9.4   18.6 WSW | 248 16.8   21.6 WSW | 248 0.00 16.8   0.9 57.5   3.1 0.00 41.1   3.7 63.5   13.8 23.4   15.0
Northwest Reno 5/5/26 1630 65.3   12.0 38   22 39.3   0.8 5.2   26.7 NW | 326 14.4   26.3 N | 350 0.00 23.4   0.1 59.5   1.2 0.00 43.5   4.3 66.3   10.9 17.1   25.1
North Lawton 5/5/26 1640 65.9   13.7 38   22 39.6   0.9 3.9   12.3 N | 7 9.2   17.6 NNE | 27 0.00 - 39.1   0.0 0.00 42.5   4.1 66.6   11.8 16.8   10.8
West Reno (Mogul) 5/5/26 1630 65.2   10.0 39   16 39.5   0.3 5.7   7.0 NNE | 19 14.4   5.5 N | 7 0.00 38.3   0.2 59.5   1.1 0.00 42.6   4.0 65.5   7.0 17.1   7.2
Caughlin (Hunter Lake Trail) 9/16/25 0800 59.7   3.5 41   11 35.9   2.7 0.0   0.0 N | 0 0.0   0.0 ENE | 66 0.00 15.7   0.0 69.8   0.5 0.00 55.7   3.2 67.7   9.1 9.4   0.9
ArrowCreek 5/5/26 1630 65.5   14.4 36   36 37.6   4.7 11.2   10.0 N | 350 16.9   13.4 NNW | 346 0.00 - 32.0   0.0 0.00 43.4   2.1 66.1   10.4 17.6   12.7
Tracy 5/5/26 1640 67.6   6.9 40   7 42.2   2.1 3.4   11.1 SE | 132 7.3   15.3 E | 95 0.00 7.9   0.0 60.2   2.2 0.00 47.8   4.9 68.1   5.5 19.0   3.6
Virginia Highlands 5/5/26 1640 58.5   14.0 55   33 42.3   1.2 4.1   6.4 ESE | 119 9.9   10.5 ESE | 123 0.00 9.0   1.8 55.0   1.5 0.00 40.1   3.7 59.5   7.5 12.3   8.2
Virginia City 5/5/26 1640 53.9   9.9 65   21 42.3   2.2 3.8   4.0 SSW | 198 6.5   7.5 S | 185 0.00 8.2   0.0 52.1   1.7 0.01 38.6   3.4 54.3   4.8 21.1   5.0
Six Mile Canyon 9/9/25 0630 60.2   9.6 37   6 33.7   4.8 4.1   2.5 W | 277 6.1   2.9 WNW | 286 0.00 12.5   0.0 75.5   0.7 0.00 57.9   7.6 64.4   1.9 7.0   3.9
Mt Rose Highway 4/30/26 0510 40.8   4.7 47   13 22.3   1.3 2.3   0.2 WSW | 243 4.8   2.1 WSW | 246 0.00 24.1   0.3 43.0   0.8 0.00 40.5   4.7 43.0   5.3 7.7   0.4
Pleasant Valley 5/5/26 1630 63.6   15.3 47   33 42.8   0.6 8.3   1.0 SW | 218 12.2   3.1 SSW | 212 0.00 2.8   0.0 58.7   1.7 0.01 43.3   0.0 65.2   12.0 14.8   5.1
New Washoe City 5/5/26 1630 62.1   15.3 48   33 42.4   0.9 6.0   0.6 SW | 234 10.8   0.7 SW | 225 0.00 4.4   0.0 55.5   2.1 0.01 42.8   0.3 62.8   10.7 18.5   4.0
Franktown Creek 5/5/26 1630 62.6   16.4 47   34 42.3   1.6 4.2   0.6 SSE | 162 7.7   5.3 S | 191 0.00 11.1   0.1 53.0   1.6 0.01 42.8   0.2 62.8   10.7 12.3   1.4
Musgrove Creek 5/5/26 1640 60.3   17.2 48   31 40.6   3.5 1.2   6.4 SSW | 203 4.3   10.4 SW | 219 0.00 45.0   0.5 52.1   0.6 0.01 40.8   1.9 61.0   9.1 11.2   8.6
East Carson 11/23/24 0110 28.6   28.4 - - 4.7   11.0 SW | 220 14.7   10.1 SW | 219 0.02 - 50.9   0.1 0.02 -25.9   79.1 42.9   14.6 16.0   10.7
Kings Canyon 5/5/26 1640 61.2   12.9 47   31 41.1   0.6 3.2   4.1 ENE | 57 7.7   4.7 NE | 52 0.00 15.2   0.1 56.2   0.7 0.05 41.5   0.4 61.6   7.2 12.5   1.1
Carson City (Voltaire Canyon) 5/5/26 1640 61.3   11.2 49   24 42.0   0.2 2.6   8.2 ESE | 109 8.1   8.8 SSE | 167 0.00 2.8   0.1 59.6   1.9 0.01 42.1   4.3 62.0   7.5 17.3   7.1
Jacks Valley 5/5/26 1630 61.0   12.9 51   23 42.5   2.5 3.7   7.4 S | 188 8.1   14.5 SSW | 211 0.00 13.2   3.7 60.7   1.2 0.13 41.5   3.2 61.4   7.8 12.3   10.3
Genoa 5/5/26 1640 63.1   11.0 49   12 43.5   4.4 1.9   4.2 NE | 53 4.8   15.0 NNE | 26 0.00 11.1   5.6 59.8   2.0 0.15 43.2   2.4 63.6   7.4 6.2   13.8
South Genoa (Walleys Hot Springs) 5/5/26 1630 63.1   7.4 48   5 42.8   4.1 2.9   6.8 E | 101 6.1   15.4 SSE | 148 0.00 13.9   0.2 59.3   2.0 0.14 44.2   0.2 63.4   6.4 11.2   20.5
SW Gardnerville (HWY 88) 5/5/26 1630 62.2   6.4 49   7 42.8   2.4 2.7   3.1 WNW | 297 6.2   7.7 WNW | 298 0.00 3.4   0.1 53.5   1.4 0.01 43.2   1.2 62.6   6.6 11.4   16.9
Sheridan 5/5/26 1640 62.2   6.4 45   9 40.7   1.1 2.3   1.2 ENE | 63 4.8   4.6 NNE | 20 0.00 6.4   4.1 56.6   0.9 0.12 43.1   1.1 62.6   5.2 10.2   5.8
Ruhenstroth 5/5/26 1640 61.0   8.2 50   6 42.2   4.8 1.7   11.2 WNW | 282 4.1   13.7 NW | 313 0.00 12.6   0.0 55.6   0.7 0.61 42.2   3.4 61.2   6.9 11.7   17.8
Double Spring 5/5/26 1640 54.0   8.1 64   7 42.1   5.3 6.4   0.6 S | 172 9.6   1.6 S | 175 0.00 29.8   1.4 52.6   1.2 0.33 38.2   0.8 55.5   5.7 11.8   11.2
North Topaz Lake 5/5/26 1640 55.6   9.1 61   16 42.4   2.8 2.5   0.3 S | 187 8.9   1.9 S | 179 0.00 9.3   0.1 60.8   1.0 0.29 40.2   2.1 55.8   2.9 20.7   4.2
Wild Oat Mountain 5/5/26 1640 53.7   9.2 58   21 39.6   0.8 4.0   2.4 SSE | 159 7.8   2.9 ESE | 110 0.00 16.4   0.1 55.5   0.8 0.26 38.1   2.0 55.6   3.3 14.4   9.1
Smith Valley 5/5/26 1640 61.4   14.3 48   31 41.7   0.6 1.5   15.4 NNE | 20 6.0   19.0 W | 277 0.00 5.7   0.1 58.9   0.9 0.25 43.6   1.7 62.3   0.2 15.9   9.8
Pine Grove Mountain 5/5/26 1640 44.3   12.6 72   23 35.8   5.4 3.1   8.3 NW | 322 8.2   9.4 NNW | 327 0.00 22.4   7.9 44.5   3.9 0.16 31.7   0.1 45.4   1.9 13.3   9.3
Paradise Hill 5/5/26 1630 71.5   1.2 26   2 35.0   1.1 11.9   1.9 NNW | 340 18.8   3.6 N | 0 0.00 8.1   0.1 60.9   0.2 0.00 43.5   3.3 72.4   3.4 24.6   6.5
Winnemucca 5/5/26 1640 69.6   4.4 29   6 35.9   0.9 5.4   9.1 W | 276 12.9   15.8 SW | 236 0.00 5.9   0.0 59.6   0.6 0.00 44.4   0.0 71.0   4.1 24.3   6.5
NE Elko 5/5/26 1640 54.4   11.7 69   38 44.4   10.4 9.4   3.5 SSE | 148 13.0   9.7 SSE | 155 0.00 12.4   0.1 60.2   2.5 0.02 44.8   11.3 61.9   12.1 23.8   11.2
North Elko 5/5/26 1640 50.7   10.1 79   40 44.4   8.6 6.6   8.4 S | 184 11.2   11.7 S | 191 0.00 28.4   0.1 56.6   1.4 0.41 43.0   2.5 61.2   10.6 28.8   9.6
South Elko 5/5/26 1640 70.2   11.5 89   47 66.8   31.2 6.6   4.2 SE | 142 10.6   6.8 SSE | 154 0.00 18.6   0.2 57.8   1.8 0.04 46.2   3.6 127.5   1.8 27.7   3.2
Lamoille 1/28/26 1720 33.2   0.5 65   17 22.8   6.3 5.8   1.5 SSE | 166 7.7   1.9 SE | 139 0.00 12.2   0.0 33.4   0.1 0.02 23.5   2.0 36.5   5.9 25.6   17.4
Reid Gardner Sub 5/5/26 1640 77.3   1.2 20   3 33.5   2.6 3.1   8.2 S | 187 8.1   12.9 SSW | 212 0.00 25.1   0.1 74.2   0.3 0.00 54.6   9.7 77.9   2.7 15.5   10.7
Corn Creek 5/5/26 1630 69.3   5.6 25   11 32.2   8.7 5.8   11.1 ESE | 104 12.8   16.4 E | 83 0.00 3.9   0.1 75.2   1.3 0.00 52.1   7.1 70.8   4.9 18.6   18.6
Lucky Strike 5/5/26 1640 57.3   5.7 31   18 26.8   15.8 2.4   12.2 SSW | 201 5.3   16.4 SSW | 207 0.00 4.5   0.1 70.9   0.2 0.00 42.4   8.6 59.0   5.9 17.8   14.4
Lower Angel Peak 5/5/26 1640 51.0   6.8 41   21 28.0   11.3 1.0   8.8 NW | 324 5.5   13.4 NNE | 33 0.00 10.3   0.3 55.5   1.2 0.00 33.6   7.9 52.6   7.3 15.8   9.3
Angel Peak 5/5/26 1630 41.4   2.7 48   17 23.2   7.9 3.5   11.1 NNW | 332 12.0   10.6 WNW | 293 0.00 3.4   0.1 51.3   7.0 0.00 29.5   8.9 43.4   5.6 15.8   18.8
Upper Kyle Canyon 5/5/26 1640 44.4   2.8 52   13 27.8   4.2 4.1   3.5 SSE | 154 7.8   12.9 SE | 137 0.00 13.6   0.0 54.0   0.0 0.00 30.5   6.2 46.0   5.9 17.9   8.8
Mt Charleston 5/5/26 1630 45.4   1.8 51   10 28.3   3.7 1.8   4.4 E | 83 6.7   7.0 E | 94 0.00 18.3   0.1 48.6   0.1 0.00 31.3   8.1 46.6   4.8 15.6   9.7
Mid Kyle Canyon 5/5/26 1640 52.6   1.9 39   9 28.6   5.0 3.9   12.8 ESE | 116 8.6   19.4 SE | 135 0.00 7.0   0.0 57.0   0.8 0.00 34.8   7.7 53.1   6.0 19.0   9.0
Blue Diamond 5/5/26 1640 68.1   0.2 27   5 33.2   5.0 5.3   3.5 NW | 320 10.8   7.8 N | 353 0.00 3.5   0.0 68.3   0.7 0.00 48.1   6.6 69.4   1.0 18.5   7.2
Artesian Sub 5/5/26 1640 76.1   2.4 18   5 30.1   5.4 2.5   5.1 SSE | 150 6.0   10.6 SSE | 164 0.00 13.3   0.1 73.9   0.2 0.00 59.1   6.0 78.1   2.2 16.4   8.0
North Henderson 5/5/26 1630 76.5   1.6 21   7 33.4   8.3 3.4   9.7 SSE | 158 8.1   15.3 SSE | 160 0.00 8.4   0.4 78.3   0.8 0.00 61.6   4.8 77.7   1.9 19.6   8.2
Sandy Valley 5/5/26 1640 68.8   0.8 28   5 34.2   4.4 5.6   7.9 WNW | 286 13.0   7.7 W | 274 0.00 4.5   0.0 77.1   2.5 0.00 51.0   4.0 69.5   1.8 18.8   5.7
Searchlight 5/5/26 1640 66.4   1.6 28   8 32.0   6.4 6.0   10.6 SW | 226 9.7   15.0 W | 259 0.00 4.6   0.1 72.6   2.9 0.00 46.9   7.7 67.2   2.3 15.8   14.2
Laughlin 5/5/26 1630 79.5   1.5 22   4 37.1   3.8 10.8   4.3 S | 189 17.3   7.7 SSW | 194 0.00 4.1   0.0 81.7   2.1 0.00 63.1   8.8 80.4   2.3 20.0   8.0
31Mission Hills 5/5/26 1630 71.9 21 29.9 3.7 NE | 54 9.1 E | 89 0.00 3.9 87.6 0.00 50.0 73.4 24.7
Max     79.5 89 66.8 11.9 - 18.8 - 0.00 45.0 87.6 0.61 63.1 127.5 28.8
Avg     60.4 48 38.9 4.2 - 8.9 - 0.00 13.8 56.5 - - - -
Min     41.4 18 23.2 0.2 - 1.9 - 0.00 1.6 32.0 0.00 29.5 43.4 3.1